sensor_id;sensor_type;location;lat;lon;timestamp;P1;durP1;ratioP1;P2;durP2;ratioP2
37943;SDS011;23767;42.024;23.086;2022-12-07T00:00:32;11.73;;;6.38;;
37943;SDS011;23767;42.024;23.086;2022-12-07T00:02:59;11.63;;;5.95;;
37943;SDS011;23767;42.024;23.086;2022-12-07T00:05:25;13.35;;;7.00;;
37943;SDS011;23767;42.024;23.086;2022-12-07T00:07:51;10.57;;;6.63;;
37943;SDS011;23767;42.024;23.086;2022-12-07T00:10:17;13.90;;;6.68;;
37943;SDS011;23767;42.024;23.086;2022-12-07T00:12:43;12.18;;;6.82;;
37943;SDS011;23767;42.024;23.086;2022-12-07T00:15:09;13.60;;;7.28;;
37943;SDS011;23767;42.024;23.086;2022-12-07T00:17:35;11.50;;;6.43;;
37943;SDS011;23767;42.024;23.086;2022-12-07T00:20:02;11.75;;;6.32;;
37943;SDS011;23767;42.024;23.086;2022-12-07T00:22:28;12.52;;;7.00;;
37943;SDS011;23767;42.024;23.086;2022-12-07T00:24:54;10.73;;;6.78;;
37943;SDS011;23767;42.024;23.086;2022-12-07T00:27:20;10.50;;;6.53;;
37943;SDS011;23767;42.024;23.086;2022-12-07T00:29:46;14.90;;;6.70;;
37943;SDS011;23767;42.024;23.086;2022-12-07T00:32:12;12.90;;;7.05;;
37943;SDS011;23767;42.024;23.086;2022-12-07T00:34:38;12.15;;;6.85;;
37943;SDS011;23767;42.024;23.086;2022-12-07T00:37:04;14.50;;;7.07;;
37943;SDS011;23767;42.024;23.086;2022-12-07T00:39:30;12.55;;;6.88;;
37943;SDS011;23767;42.024;23.086;2022-12-07T00:41:56;16.48;;;6.68;;
37943;SDS011;23767;42.024;23.086;2022-12-07T00:44:22;10.07;;;6.22;;
37943;SDS011;23767;42.024;23.086;2022-12-07T00:46:48;11.68;;;6.28;;
37943;SDS011;23767;42.024;23.086;2022-12-07T00:49:14;15.40;;;7.38;;
37943;SDS011;23767;42.024;23.086;2022-12-07T00:51:40;16.83;;;7.13;;
37943;SDS011;23767;42.024;23.086;2022-12-07T00:54:06;13.85;;;7.50;;
37943;SDS011;23767;42.024;23.086;2022-12-07T00:56:32;15.30;;;7.05;;
37943;SDS011;23767;42.024;23.086;2022-12-07T00:59:00;10.75;;;6.57;;
37943;SDS011;23767;42.024;23.086;2022-12-07T01:01:27;12.55;;;6.70;;
37943;SDS011;23767;42.024;23.086;2022-12-07T01:03:53;11.45;;;6.65;;
37943;SDS011;23767;42.024;23.086;2022-12-07T01:06:20;11.80;;;6.35;;
37943;SDS011;23767;42.024;23.086;2022-12-07T01:08:46;10.35;;;6.43;;
37943;SDS011;23767;42.024;23.086;2022-12-07T01:11:17;10.60;;;7.10;;
37943;SDS011;23767;42.024;23.086;2022-12-07T01:13:43;11.02;;;6.25;;
37943;SDS011;23767;42.024;23.086;2022-12-07T01:16:10;11.80;;;7.15;;
37943;SDS011;23767;42.024;23.086;2022-12-07T01:18:37;10.63;;;6.38;;
37943;SDS011;23767;42.024;23.086;2022-12-07T01:21:04;11.65;;;6.78;;
37943;SDS011;23767;42.024;23.086;2022-12-07T01:23:31;12.40;;;7.30;;
37943;SDS011;23767;42.024;23.086;2022-12-07T01:25:58;14.70;;;6.25;;
37943;SDS011;23767;42.024;23.086;2022-12-07T01:28:25;13.18;;;7.78;;
37943;SDS011;23767;42.024;23.086;2022-12-07T01:30:55;14.35;;;7.47;;
37943;SDS011;23767;42.024;23.086;2022-12-07T01:33:21;14.80;;;7.65;;
37943;SDS011;23767;42.024;23.086;2022-12-07T01:35:47;15.90;;;7.55;;
37943;SDS011;23767;42.024;23.086;2022-12-07T01:38:13;11.38;;;6.93;;
37943;SDS011;23767;42.024;23.086;2022-12-07T01:40:39;11.70;;;6.72;;
37943;SDS011;23767;42.024;23.086;2022-12-07T01:43:16;15.25;;;7.15;;
37943;SDS011;23767;42.024;23.086;2022-12-07T01:45:43;11.75;;;6.93;;
37943;SDS011;23767;42.024;23.086;2022-12-07T01:48:09;12.70;;;6.97;;
37943;SDS011;23767;42.024;23.086;2022-12-07T01:50:36;11.57;;;7.10;;
37943;SDS011;23767;42.024;23.086;2022-12-07T01:53:04;10.75;;;6.35;;
37943;SDS011;23767;42.024;23.086;2022-12-07T01:55:32;13.38;;;6.85;;
37943;SDS011;23767;42.024;23.086;2022-12-07T01:57:58;12.68;;;6.78;;
37943;SDS011;23767;42.024;23.086;2022-12-07T02:00:24;11.25;;;6.20;;
37943;SDS011;23767;42.024;23.086;2022-12-07T02:05:19;11.45;;;5.72;;
37943;SDS011;23767;42.024;23.086;2022-12-07T02:07:46;12.73;;;6.90;;
37943;SDS011;23767;42.024;23.086;2022-12-07T02:12:39;11.20;;;6.25;;
37943;SDS011;23767;42.024;23.086;2022-12-07T02:15:05;10.15;;;6.07;;
37943;SDS011;23767;42.024;23.086;2022-12-07T02:20:33;13.18;;;7.15;;
37943;SDS011;23767;42.024;23.086;2022-12-07T02:30:47;12.38;;;7.53;;
37943;SDS011;23767;42.024;23.086;2022-12-07T02:33:16;13.20;;;7.40;;
37943;SDS011;23767;42.024;23.086;2022-12-07T02:38:18;10.77;;;6.50;;
37943;SDS011;23767;42.024;23.086;2022-12-07T02:43:25;10.52;;;6.10;;
37943;SDS011;23767;42.024;23.086;2022-12-07T02:45:52;8.85;;;5.88;;
37943;SDS011;23767;42.024;23.086;2022-12-07T02:48:19;12.07;;;5.95;;
37943;SDS011;23767;42.024;23.086;2022-12-07T02:50:49;10.30;;;6.30;;
37943;SDS011;23767;42.024;23.086;2022-12-07T02:56:29;11.70;;;5.80;;
37943;SDS011;23767;42.024;23.086;2022-12-07T03:07:00;10.75;;;6.25;;
37943;SDS011;23767;42.024;23.086;2022-12-07T03:09:29;8.02;;;5.20;;
37943;SDS011;23767;42.024;23.086;2022-12-07T03:12:01;11.50;;;5.75;;
37943;SDS011;23767;42.024;23.086;2022-12-07T03:14:30;13.10;;;6.47;;
37943;SDS011;23767;42.024;23.086;2022-12-07T03:17:03;18.15;;;6.97;;
37943;SDS011;23767;42.024;23.086;2022-12-07T03:19:30;12.45;;;7.07;;
37943;SDS011;23767;42.024;23.086;2022-12-07T03:22:02;15.00;;;7.32;;
37943;SDS011;23767;42.024;23.086;2022-12-07T03:24:37;12.68;;;7.43;;
37943;SDS011;23767;42.024;23.086;2022-12-07T03:27:09;12.30;;;6.97;;
37943;SDS011;23767;42.024;23.086;2022-12-07T03:29:37;12.93;;;7.47;;
37943;SDS011;23767;42.024;23.086;2022-12-07T03:34:34;12.82;;;7.88;;
37943;SDS011;23767;42.024;23.086;2022-12-07T03:37:03;17.85;;;8.20;;
37943;SDS011;23767;42.024;23.086;2022-12-07T03:39:34;12.40;;;7.40;;
37943;SDS011;23767;42.024;23.086;2022-12-07T03:42:02;13.82;;;8.43;;
37943;SDS011;23767;42.024;23.086;2022-12-07T03:44:30;14.88;;;8.20;;
37943;SDS011;23767;42.024;23.086;2022-12-07T03:54:34;13.90;;;8.15;;
37943;SDS011;23767;42.024;23.086;2022-12-07T03:57:02;13.30;;;7.43;;
37943;SDS011;23767;42.024;23.086;2022-12-07T03:59:29;12.80;;;6.45;;
37943;SDS011;23767;42.024;23.086;2022-12-07T04:01:56;17.75;;;7.50;;
37943;SDS011;23767;42.024;23.086;2022-12-07T04:04:23;9.90;;;6.40;;
37943;SDS011;23767;42.024;23.086;2022-12-07T04:06:50;11.40;;;6.22;;
37943;SDS011;23767;42.024;23.086;2022-12-07T04:09:16;11.93;;;6.55;;
37943;SDS011;23767;42.024;23.086;2022-12-07T04:11:43;11.18;;;6.57;;
37943;SDS011;23767;42.024;23.086;2022-12-07T04:14:09;11.77;;;5.85;;
37943;SDS011;23767;42.024;23.086;2022-12-07T04:16:55;9.25;;;6.03;;
37943;SDS011;23767;42.024;23.086;2022-12-07T04:19:25;10.73;;;5.93;;
37943;SDS011;23767;42.024;23.086;2022-12-07T04:21:51;10.65;;;6.20;;
37943;SDS011;23767;42.024;23.086;2022-12-07T04:24:17;13.38;;;6.35;;
37943;SDS011;23767;42.024;23.086;2022-12-07T04:26:44;13.23;;;6.25;;
37943;SDS011;23767;42.024;23.086;2022-12-07T04:29:10;13.85;;;5.53;;
37943;SDS011;23767;42.024;23.086;2022-12-07T04:31:36;12.05;;;5.63;;
37943;SDS011;23767;42.024;23.086;2022-12-07T04:34:02;12.18;;;5.35;;
37943;SDS011;23767;42.024;23.086;2022-12-07T04:36:29;11.25;;;5.45;;
37943;SDS011;23767;42.024;23.086;2022-12-07T04:38:55;12.93;;;5.50;;
37943;SDS011;23767;42.024;23.086;2022-12-07T04:41:22;10.15;;;5.78;;
37943;SDS011;23767;42.024;23.086;2022-12-07T04:43:55;14.50;;;6.43;;
37943;SDS011;23767;42.024;23.086;2022-12-07T04:46:22;11.82;;;6.15;;
37943;SDS011;23767;42.024;23.086;2022-12-07T04:48:48;12.32;;;6.68;;
37943;SDS011;23767;42.024;23.086;2022-12-07T04:51:35;14.80;;;6.57;;
37943;SDS011;23767;42.024;23.086;2022-12-07T04:54:01;12.63;;;6.35;;
37943;SDS011;23767;42.024;23.086;2022-12-07T04:56:27;17.85;;;7.57;;
37943;SDS011;23767;42.024;23.086;2022-12-07T04:58:53;9.77;;;6.28;;
37943;SDS011;23767;42.024;23.086;2022-12-07T05:01:20;11.73;;;6.10;;
37943;SDS011;23767;42.024;23.086;2022-12-07T05:03:46;13.90;;;6.90;;
37943;SDS011;23767;42.024;23.086;2022-12-07T05:06:12;12.30;;;6.15;;
37943;SDS011;23767;42.024;23.086;2022-12-07T05:08:39;15.25;;;6.88;;
37943;SDS011;23767;42.024;23.086;2022-12-07T05:11:05;11.88;;;6.80;;
37943;SDS011;23767;42.024;23.086;2022-12-07T05:13:32;13.05;;;7.35;;
37943;SDS011;23767;42.024;23.086;2022-12-07T05:15:58;12.38;;;6.40;;
37943;SDS011;23767;42.024;23.086;2022-12-07T05:18:24;18.38;;;6.38;;
37943;SDS011;23767;42.024;23.086;2022-12-07T05:20:51;16.88;;;7.68;;
37943;SDS011;23767;42.024;23.086;2022-12-07T05:23:17;16.85;;;8.02;;
37943;SDS011;23767;42.024;23.086;2022-12-07T05:25:43;20.50;;;8.48;;
37943;SDS011;23767;42.024;23.086;2022-12-07T05:28:10;22.58;;;9.48;;
37943;SDS011;23767;42.024;23.086;2022-12-07T05:30:36;22.90;;;10.82;;
37943;SDS011;23767;42.024;23.086;2022-12-07T05:33:02;15.90;;;8.80;;
37943;SDS011;23767;42.024;23.086;2022-12-07T05:35:28;18.33;;;9.65;;
37943;SDS011;23767;42.024;23.086;2022-12-07T05:37:55;18.27;;;8.82;;
37943;SDS011;23767;42.024;23.086;2022-12-07T05:40:22;13.57;;;8.68;;
37943;SDS011;23767;42.024;23.086;2022-12-07T05:42:48;16.95;;;7.38;;
37943;SDS011;23767;42.024;23.086;2022-12-07T05:45:14;14.60;;;8.52;;
37943;SDS011;23767;42.024;23.086;2022-12-07T05:47:40;13.50;;;8.05;;
37943;SDS011;23767;42.024;23.086;2022-12-07T05:50:06;20.92;;;8.85;;
37943;SDS011;23767;42.024;23.086;2022-12-07T05:52:32;14.25;;;8.95;;
37943;SDS011;23767;42.024;23.086;2022-12-07T05:54:58;22.60;;;10.73;;
37943;SDS011;23767;42.024;23.086;2022-12-07T05:57:24;17.92;;;10.85;;
37943;SDS011;23767;42.024;23.086;2022-12-07T05:59:50;27.42;;;13.85;;
37943;SDS011;23767;42.024;23.086;2022-12-07T06:02:16;24.05;;;13.65;;
37943;SDS011;23767;42.024;23.086;2022-12-07T06:04:45;23.35;;;14.32;;
37943;SDS011;23767;42.024;23.086;2022-12-07T06:07:12;26.13;;;15.38;;
37943;SDS011;23767;42.024;23.086;2022-12-07T06:09:39;28.13;;;14.85;;
37943;SDS011;23767;42.024;23.086;2022-12-07T06:12:05;35.78;;;14.65;;
37943;SDS011;23767;42.024;23.086;2022-12-07T06:14:50;26.77;;;13.27;;
37943;SDS011;23767;42.024;23.086;2022-12-07T06:17:16;28.48;;;12.75;;
37943;SDS011;23767;42.024;23.086;2022-12-07T06:19:42;31.67;;;14.02;;
37943;SDS011;23767;42.024;23.086;2022-12-07T06:22:09;27.73;;;13.98;;
37943;SDS011;23767;42.024;23.086;2022-12-07T06:24:36;31.55;;;14.65;;
37943;SDS011;23767;42.024;23.086;2022-12-07T06:27:03;29.73;;;14.18;;
37943;SDS011;23767;42.024;23.086;2022-12-07T06:29:29;31.77;;;15.05;;
37943;SDS011;23767;42.024;23.086;2022-12-07T06:31:55;32.63;;;15.20;;
37943;SDS011;23767;42.024;23.086;2022-12-07T06:34:21;28.00;;;15.18;;
37943;SDS011;23767;42.024;23.086;2022-12-07T06:36:48;27.75;;;13.88;;
37943;SDS011;23767;42.024;23.086;2022-12-07T06:39:17;27.83;;;13.40;;
37943;SDS011;23767;42.024;23.086;2022-12-07T06:41:43;32.50;;;13.93;;
37943;SDS011;23767;42.024;23.086;2022-12-07T06:44:09;33.25;;;13.18;;
37943;SDS011;23767;42.024;23.086;2022-12-07T06:46:35;25.73;;;13.35;;
37943;SDS011;23767;42.024;23.086;2022-12-07T06:49:01;25.10;;;12.10;;
37943;SDS011;23767;42.024;23.086;2022-12-07T06:51:27;24.55;;;12.10;;
37943;SDS011;23767;42.024;23.086;2022-12-07T06:53:54;31.60;;;14.32;;
37943;SDS011;23767;42.024;23.086;2022-12-07T06:56:20;25.05;;;13.95;;
37943;SDS011;23767;42.024;23.086;2022-12-07T06:58:46;32.15;;;17.45;;
37943;SDS011;23767;42.024;23.086;2022-12-07T07:01:12;35.35;;;19.92;;
37943;SDS011;23767;42.024;23.086;2022-12-07T07:03:39;48.25;;;21.25;;
37943;SDS011;23767;42.024;23.086;2022-12-07T07:06:05;37.22;;;18.40;;
37943;SDS011;23767;42.024;23.086;2022-12-07T07:08:35;42.30;;;18.50;;
37943;SDS011;23767;42.024;23.086;2022-12-07T07:11:01;36.45;;;19.85;;
37943;SDS011;23767;42.024;23.086;2022-12-07T07:13:27;32.05;;;17.52;;
37943;SDS011;23767;42.024;23.086;2022-12-07T07:15:54;28.88;;;18.30;;
37943;SDS011;23767;42.024;23.086;2022-12-07T07:18:20;32.13;;;16.42;;
37943;SDS011;23767;42.024;23.086;2022-12-07T07:20:46;26.25;;;13.77;;
37943;SDS011;23767;42.024;23.086;2022-12-07T07:23:12;21.13;;;12.13;;
37943;SDS011;23767;42.024;23.086;2022-12-07T07:25:38;20.73;;;12.10;;
37943;SDS011;23767;42.024;23.086;2022-12-07T07:28:04;25.08;;;11.30;;
37943;SDS011;23767;42.024;23.086;2022-12-07T07:30:30;17.60;;;10.13;;
37943;SDS011;23767;42.024;23.086;2022-12-07T07:33:00;21.35;;;11.25;;
37943;SDS011;23767;42.024;23.086;2022-12-07T07:35:27;19.65;;;10.60;;
37943;SDS011;23767;42.024;23.086;2022-12-07T07:37:53;21.45;;;11.48;;
37943;SDS011;23767;42.024;23.086;2022-12-07T07:40:19;22.15;;;12.27;;
37943;SDS011;23767;42.024;23.086;2022-12-07T07:42:49;24.13;;;12.48;;
37943;SDS011;23767;42.024;23.086;2022-12-07T07:45:15;21.20;;;12.82;;
37943;SDS011;23767;42.024;23.086;2022-12-07T07:47:42;28.27;;;13.52;;
37943;SDS011;23767;42.024;23.086;2022-12-07T07:50:08;24.00;;;13.45;;
37943;SDS011;23767;42.024;23.086;2022-12-07T07:52:34;23.60;;;12.20;;
37943;SDS011;23767;42.024;23.086;2022-12-07T07:55:00;20.65;;;11.95;;
37943;SDS011;23767;42.024;23.086;2022-12-07T07:57:26;19.90;;;12.10;;
37943;SDS011;23767;42.024;23.086;2022-12-07T07:59:52;27.90;;;12.52;;
37943;SDS011;23767;42.024;23.086;2022-12-07T08:02:19;26.15;;;12.07;;
37943;SDS011;23767;42.024;23.086;2022-12-07T08:04:46;20.02;;;11.70;;
37943;SDS011;23767;42.024;23.086;2022-12-07T08:07:12;20.20;;;11.43;;
37943;SDS011;23767;42.024;23.086;2022-12-07T08:09:38;15.27;;;8.93;;
37943;SDS011;23767;42.024;23.086;2022-12-07T08:12:04;12.43;;;7.20;;
37943;SDS011;23767;42.024;23.086;2022-12-07T08:14:31;14.52;;;6.43;;
37943;SDS011;23767;42.024;23.086;2022-12-07T08:16:57;12.52;;;6.22;;
37943;SDS011;23767;42.024;23.086;2022-12-07T08:19:23;14.43;;;6.45;;
37943;SDS011;23767;42.024;23.086;2022-12-07T08:21:49;16.20;;;6.45;;
37943;SDS011;23767;42.024;23.086;2022-12-07T08:24:15;10.80;;;7.03;;
37943;SDS011;23767;42.024;23.086;2022-12-07T08:26:41;13.13;;;6.78;;
37943;SDS011;23767;42.024;23.086;2022-12-07T08:29:07;12.38;;;6.97;;
37943;SDS011;23767;42.024;23.086;2022-12-07T08:31:33;10.93;;;6.35;;
37943;SDS011;23767;42.024;23.086;2022-12-07T08:33:59;15.80;;;6.60;;
37943;SDS011;23767;42.024;23.086;2022-12-07T08:36:25;13.05;;;6.10;;
37943;SDS011;23767;42.024;23.086;2022-12-07T08:38:52;12.57;;;6.00;;
37943;SDS011;23767;42.024;23.086;2022-12-07T08:41:18;9.00;;;5.20;;
37943;SDS011;23767;42.024;23.086;2022-12-07T08:43:44;9.07;;;5.68;;
37943;SDS011;23767;42.024;23.086;2022-12-07T08:46:14;12.52;;;6.13;;
37943;SDS011;23767;42.024;23.086;2022-12-07T08:48:52;11.25;;;6.43;;
37943;SDS011;23767;42.024;23.086;2022-12-07T08:51:19;8.95;;;5.40;;
37943;SDS011;23767;42.024;23.086;2022-12-07T08:53:45;11.18;;;5.97;;
37943;SDS011;23767;42.024;23.086;2022-12-07T08:56:11;13.70;;;6.28;;
37943;SDS011;23767;42.024;23.086;2022-12-07T08:58:38;11.45;;;6.07;;
37943;SDS011;23767;42.024;23.086;2022-12-07T09:01:04;12.50;;;6.35;;
37943;SDS011;23767;42.024;23.086;2022-12-07T09:03:30;12.95;;;6.30;;
37943;SDS011;23767;42.024;23.086;2022-12-07T09:05:57;10.98;;;6.20;;
37943;SDS011;23767;42.024;23.086;2022-12-07T09:08:25;10.65;;;5.95;;
37943;SDS011;23767;42.024;23.086;2022-12-07T09:10:52;12.05;;;6.20;;
37943;SDS011;23767;42.024;23.086;2022-12-07T09:13:18;12.75;;;6.28;;
37943;SDS011;23767;42.024;23.086;2022-12-07T09:15:44;13.85;;;6.53;;
37943;SDS011;23767;42.024;23.086;2022-12-07T09:18:10;18.45;;;6.25;;
37943;SDS011;23767;42.024;23.086;2022-12-07T09:20:36;11.35;;;5.40;;
37943;SDS011;23767;42.024;23.086;2022-12-07T09:23:02;9.07;;;5.68;;
37943;SDS011;23767;42.024;23.086;2022-12-07T09:25:28;14.05;;;6.50;;
37943;SDS011;23767;42.024;23.086;2022-12-07T09:27:57;10.82;;;5.90;;
37943;SDS011;23767;42.024;23.086;2022-12-07T09:30:24;9.48;;;5.63;;
37943;SDS011;23767;42.024;23.086;2022-12-07T09:32:51;10.73;;;5.22;;
37943;SDS011;23767;42.024;23.086;2022-12-07T09:35:18;16.08;;;5.57;;
37943;SDS011;23767;42.024;23.086;2022-12-07T09:37:44;9.65;;;5.00;;
37943;SDS011;23767;42.024;23.086;2022-12-07T09:40:10;12.30;;;5.22;;
37943;SDS011;23767;42.024;23.086;2022-12-07T09:42:37;12.38;;;5.35;;
37943;SDS011;23767;42.024;23.086;2022-12-07T09:45:05;8.85;;;5.13;;
37943;SDS011;23767;42.024;23.086;2022-12-07T09:47:32;11.75;;;4.72;;
37943;SDS011;23767;42.024;23.086;2022-12-07T09:50:05;12.45;;;5.10;;
37943;SDS011;23767;42.024;23.086;2022-12-07T09:52:31;8.82;;;4.32;;
37943;SDS011;23767;42.024;23.086;2022-12-07T09:54:58;14.63;;;5.03;;
37943;SDS011;23767;42.024;23.086;2022-12-07T09:57:31;7.65;;;4.22;;
37943;SDS011;23767;42.024;23.086;2022-12-07T10:00:04;11.25;;;4.57;;
37943;SDS011;23767;42.024;23.086;2022-12-07T10:02:43;10.20;;;4.50;;
37943;SDS011;23767;42.024;23.086;2022-12-07T10:05:16;11.93;;;5.22;;
37943;SDS011;23767;42.024;23.086;2022-12-07T10:07:42;9.00;;;4.50;;
37943;SDS011;23767;42.024;23.086;2022-12-07T10:10:13;9.65;;;5.13;;
37943;SDS011;23767;42.024;23.086;2022-12-07T10:12:57;12.98;;;4.55;;
37943;SDS011;23767;42.024;23.086;2022-12-07T10:15:39;11.23;;;5.03;;
37943;SDS011;23767;42.024;23.086;2022-12-07T10:18:14;13.43;;;5.22;;
37943;SDS011;23767;42.024;23.086;2022-12-07T10:20:42;9.23;;;5.05;;
37943;SDS011;23767;42.024;23.086;2022-12-07T10:23:13;11.77;;;5.00;;
37943;SDS011;23767;42.024;23.086;2022-12-07T10:25:40;10.75;;;5.10;;
37943;SDS011;23767;42.024;23.086;2022-12-07T10:30:34;7.97;;;5.00;;
37943;SDS011;23767;42.024;23.086;2022-12-07T10:33:48;9.27;;;4.30;;
37943;SDS011;23767;42.024;23.086;2022-12-07T10:39:02;10.80;;;4.72;;
37943;SDS011;23767;42.024;23.086;2022-12-07T10:41:28;9.82;;;4.10;;
37943;SDS011;23767;42.024;23.086;2022-12-07T10:43:56;11.27;;;4.93;;
37943;SDS011;23767;42.024;23.086;2022-12-07T10:51:27;10.15;;;4.88;;
37943;SDS011;23767;42.024;23.086;2022-12-07T10:56:29;8.68;;;4.57;;
37943;SDS011;23767;42.024;23.086;2022-12-07T11:07:07;10.60;;;4.90;;
37943;SDS011;23767;42.024;23.086;2022-12-07T11:17:36;11.35;;;4.70;;
37943;SDS011;23767;42.024;23.086;2022-12-07T11:20:22;9.02;;;4.45;;
37943;SDS011;23767;42.024;23.086;2022-12-07T11:25:32;11.63;;;4.75;;
37943;SDS011;23767;42.024;23.086;2022-12-07T11:30:43;10.02;;;4.40;;
37943;SDS011;23767;42.024;23.086;2022-12-07T11:38:45;11.15;;;4.90;;
37943;SDS011;23767;42.024;23.086;2022-12-07T11:41:13;10.00;;;4.82;;
37943;SDS011;23767;42.024;23.086;2022-12-07T11:46:19;11.68;;;5.75;;
37943;SDS011;23767;42.024;23.086;2022-12-07T11:48:46;17.75;;;7.05;;
37943;SDS011;23767;42.024;23.086;2022-12-07T11:51:15;11.93;;;6.55;;
37943;SDS011;23767;42.024;23.086;2022-12-07T11:53:48;14.30;;;7.18;;
37943;SDS011;23767;42.024;23.086;2022-12-07T11:56:16;13.13;;;6.18;;
37943;SDS011;23767;42.024;23.086;2022-12-07T12:04:05;10.00;;;5.50;;
37943;SDS011;23767;42.024;23.086;2022-12-07T12:06:33;9.63;;;5.22;;
37943;SDS011;23767;42.024;23.086;2022-12-07T12:21:54;11.93;;;4.60;;
37943;SDS011;23767;42.024;23.086;2022-12-07T12:24:25;13.40;;;5.35;;
37943;SDS011;23767;42.024;23.086;2022-12-07T12:26:53;11.00;;;5.55;;
37943;SDS011;23767;42.024;23.086;2022-12-07T12:32:03;8.23;;;5.03;;
37943;SDS011;23767;42.024;23.086;2022-12-07T12:34:38;11.65;;;4.82;;
37943;SDS011;23767;42.024;23.086;2022-12-07T12:37:14;9.73;;;4.90;;
37943;SDS011;23767;42.024;23.086;2022-12-07T12:42:46;8.10;;;3.95;;
37943;SDS011;23767;42.024;23.086;2022-12-07T12:45:22;8.80;;;5.00;;
37943;SDS011;23767;42.024;23.086;2022-12-07T12:52:47;9.57;;;4.65;;
37943;SDS011;23767;42.024;23.086;2022-12-07T12:55:16;8.60;;;4.40;;
37943;SDS011;23767;42.024;23.086;2022-12-07T12:57:46;9.05;;;4.60;;
37943;SDS011;23767;42.024;23.086;2022-12-07T13:00:22;12.77;;;5.07;;
37943;SDS011;23767;42.024;23.086;2022-12-07T13:02:55;8.73;;;4.50;;
37943;SDS011;23767;42.024;23.086;2022-12-07T13:05:23;13.90;;;6.05;;
37943;SDS011;23767;42.024;23.086;2022-12-07T13:07:51;11.95;;;6.25;;
37943;SDS011;23767;42.024;23.086;2022-12-07T13:23:14;12.23;;;5.57;;
37943;SDS011;23767;42.024;23.086;2022-12-07T13:25:45;10.85;;;4.55;;
37943;SDS011;23767;42.024;23.086;2022-12-07T13:28:18;15.02;;;5.88;;
37943;SDS011;23767;42.024;23.086;2022-12-07T13:30:46;11.27;;;5.75;;
37943;SDS011;23767;42.024;23.086;2022-12-07T13:33:13;13.98;;;5.40;;
37943;SDS011;23767;42.024;23.086;2022-12-07T13:35:40;13.98;;;5.55;;
37943;SDS011;23767;42.024;23.086;2022-12-07T13:38:19;11.77;;;4.93;;
37943;SDS011;23767;42.024;23.086;2022-12-07T13:41:04;8.38;;;4.85;;
37943;SDS011;23767;42.024;23.086;2022-12-07T13:43:31;11.05;;;5.07;;
37943;SDS011;23767;42.024;23.086;2022-12-07T13:45:57;16.92;;;6.35;;
37943;SDS011;23767;42.024;23.086;2022-12-07T13:50:55;11.20;;;6.32;;
37943;SDS011;23767;42.024;23.086;2022-12-07T13:53:21;11.73;;;5.97;;
37943;SDS011;23767;42.024;23.086;2022-12-07T13:55:47;14.30;;;5.85;;
37943;SDS011;23767;42.024;23.086;2022-12-07T13:58:14;10.40;;;5.63;;
37943;SDS011;23767;42.024;23.086;2022-12-07T14:00:40;14.13;;;6.10;;
37943;SDS011;23767;42.024;23.086;2022-12-07T14:05:39;11.93;;;6.30;;
37943;SDS011;23767;42.024;23.086;2022-12-07T14:08:21;13.02;;;7.45;;
37943;SDS011;23767;42.024;23.086;2022-12-07T14:15:49;13.93;;;7.53;;
37943;SDS011;23767;42.024;23.086;2022-12-07T14:18:25;16.02;;;7.38;;
37943;SDS011;23767;42.024;23.086;2022-12-07T14:21:02;14.60;;;6.40;;
37943;SDS011;23767;42.024;23.086;2022-12-07T14:23:28;11.55;;;6.72;;
37943;SDS011;23767;42.024;23.086;2022-12-07T14:26:03;10.45;;;6.50;;
37943;SDS011;23767;42.024;23.086;2022-12-07T14:28:31;12.55;;;8.00;;
37943;SDS011;23767;42.024;23.086;2022-12-07T14:30:57;13.57;;;7.47;;
37943;SDS011;23767;42.024;23.086;2022-12-07T14:33:24;14.07;;;8.00;;
37943;SDS011;23767;42.024;23.086;2022-12-07T14:35:50;16.35;;;7.85;;
37943;SDS011;23767;42.024;23.086;2022-12-07T14:38:21;12.02;;;7.05;;
37943;SDS011;23767;42.024;23.086;2022-12-07T14:40:47;12.13;;;7.53;;
37943;SDS011;23767;42.024;23.086;2022-12-07T14:43:14;13.23;;;7.03;;
37943;SDS011;23767;42.024;23.086;2022-12-07T14:45:40;12.88;;;7.85;;
37943;SDS011;23767;42.024;23.086;2022-12-07T14:48:13;14.82;;;8.77;;
37943;SDS011;23767;42.024;23.086;2022-12-07T14:50:45;17.17;;;9.10;;
37943;SDS011;23767;42.024;23.086;2022-12-07T14:53:16;13.15;;;8.60;;
37943;SDS011;23767;42.024;23.086;2022-12-07T14:55:43;15.82;;;8.43;;
37943;SDS011;23767;42.024;23.086;2022-12-07T14:58:16;14.80;;;9.15;;
37943;SDS011;23767;42.024;23.086;2022-12-07T15:00:43;15.88;;;9.93;;
37943;SDS011;23767;42.024;23.086;2022-12-07T15:03:09;13.65;;;8.13;;
37943;SDS011;23767;42.024;23.086;2022-12-07T15:05:37;13.70;;;8.68;;
37943;SDS011;23767;42.024;23.086;2022-12-07T15:08:04;15.43;;;9.45;;
37943;SDS011;23767;42.024;23.086;2022-12-07T15:10:31;17.90;;;10.38;;
37943;SDS011;23767;42.024;23.086;2022-12-07T15:12:58;14.57;;;8.35;;
37943;SDS011;23767;42.024;23.086;2022-12-07T15:15:44;14.55;;;8.98;;
37943;SDS011;23767;42.024;23.086;2022-12-07T15:18:10;15.25;;;9.02;;
37943;SDS011;23767;42.024;23.086;2022-12-07T15:20:36;13.48;;;9.10;;
37943;SDS011;23767;42.024;23.086;2022-12-07T15:23:02;18.92;;;9.73;;
37943;SDS011;23767;42.024;23.086;2022-12-07T15:25:28;15.65;;;9.75;;
37943;SDS011;23767;42.024;23.086;2022-12-07T15:27:54;18.85;;;10.45;;
37943;SDS011;23767;42.024;23.086;2022-12-07T15:30:20;12.77;;;9.10;;
37943;SDS011;23767;42.024;23.086;2022-12-07T15:32:50;17.73;;;9.30;;
37943;SDS011;23767;42.024;23.086;2022-12-07T15:35:16;16.20;;;9.38;;
37943;SDS011;23767;42.024;23.086;2022-12-07T15:37:42;18.58;;;10.80;;
37943;SDS011;23767;42.024;23.086;2022-12-07T15:40:08;15.90;;;10.35;;
37943;SDS011;23767;42.024;23.086;2022-12-07T15:42:35;16.50;;;8.65;;
37943;SDS011;23767;42.024;23.086;2022-12-07T15:45:01;16.25;;;9.45;;
37943;SDS011;23767;42.024;23.086;2022-12-07T15:47:31;20.30;;;11.82;;
37943;SDS011;23767;42.024;23.086;2022-12-07T15:49:57;18.08;;;11.05;;
37943;SDS011;23767;42.024;23.086;2022-12-07T15:52:23;18.58;;;11.73;;
37943;SDS011;23767;42.024;23.086;2022-12-07T15:54:49;17.65;;;10.85;;
37943;SDS011;23767;42.024;23.086;2022-12-07T15:57:15;19.38;;;12.50;;
37943;SDS011;23767;42.024;23.086;2022-12-07T15:59:41;18.75;;;13.63;;
37943;SDS011;23767;42.024;23.086;2022-12-07T16:02:08;21.45;;;13.70;;
37943;SDS011;23767;42.024;23.086;2022-12-07T16:04:35;20.30;;;14.23;;
37943;SDS011;23767;42.024;23.086;2022-12-07T16:07:01;20.65;;;12.40;;
37943;SDS011;23767;42.024;23.086;2022-12-07T16:09:27;16.05;;;11.18;;
37943;SDS011;23767;42.024;23.086;2022-12-07T16:11:54;22.33;;;14.15;;
37943;SDS011;23767;42.024;23.086;2022-12-07T16:14:20;23.58;;;15.07;;
37943;SDS011;23767;42.024;23.086;2022-12-07T16:16:46;24.02;;;16.63;;
37943;SDS011;23767;42.024;23.086;2022-12-07T16:19:13;22.02;;;14.15;;
37943;SDS011;23767;42.024;23.086;2022-12-07T16:21:39;16.70;;;11.63;;
37943;SDS011;23767;42.024;23.086;2022-12-07T16:24:05;23.17;;;13.90;;
37943;SDS011;23767;42.024;23.086;2022-12-07T16:26:32;21.55;;;13.13;;
37943;SDS011;23767;42.024;23.086;2022-12-07T16:28:58;17.63;;;12.32;;
37943;SDS011;23767;42.024;23.086;2022-12-07T16:31:25;19.88;;;12.38;;
37943;SDS011;23767;42.024;23.086;2022-12-07T16:33:55;19.00;;;12.18;;
37943;SDS011;23767;42.024;23.086;2022-12-07T16:36:21;20.27;;;12.40;;
37943;SDS011;23767;42.024;23.086;2022-12-07T16:38:49;23.17;;;12.73;;